This is the latest recevied weather packets stored in our database for station/object K0SDS. If no packets are shown the sender has not sent any weather packets the latest 10 day(s).
| Time | Temp. | Humidity | Pressure | Rain* | Wind** | Luminosity | Snow |
|---|---|---|---|---|---|---|---|
| 1777520538 | 7.78° C | 84% | 1019.2 hPa | 0 mm | - | 0 W/m² | - |
| 1777520234 | 8.33° C | 83% | 1019 hPa | 0 mm | - | 0 W/m² | - |
| 1777519933 | 8.33° C | 83% | 1019.1 hPa | 0 mm | - | 0 W/m² | - |
| 1777519629 | 8.89° C | 82% | 1019 hPa | 0 mm | - | 0 W/m² | - |
| 1777519325 | 8.89° C | 81% | 1019 hPa | 0 mm | - | 0 W/m² | - |
| 1777519022 | 10.56° C | 76% | 1019 hPa | 0 mm | - | 0 W/m² | - |
| 1777518718 | 11.11° C | 66% | 1018.9 hPa | 0 mm | - | 0 W/m² | - |
| 1777518415 | 11.67° C | 64% | 1018.8 hPa | 0 mm | - | 0 W/m² | - |
| 1777518110 | 11.67° C | 63% | 1018.8 hPa | 0 mm | - | 0 W/m² | - |
| 1777517806 | 11.67° C | 63% | 1018.8 hPa | 0 mm | - | 0 W/m² | - |
| 1777517503 | 11.67° C | 63% | 1018.9 hPa | 0 mm | - | 0 W/m² | - |
| 1777517201 | 11.11° C | 65% | 1018.5 hPa | 0 mm | - | 0 W/m² | - |
| 1777516899 | 10.56° C | 68% | 1018.5 hPa | 0 mm | - | 0 W/m² | - |
| 1777516596 | 10° C | 73% | 1018.5 hPa | 0 mm | - | 0 W/m² | - |
| 1777516292 | 10° C | 77% | 1018.6 hPa | 0 mm | - | 0 W/m² | - |
| 1777515988 | 10° C | 77% | 1018.8 hPa | 0 mm | - | 0 W/m² | - |
| 1777515684 | 10.56° C | 74% | 1018.4 hPa | 0 mm | - | 0 W/m² | - |
| 1777515382 | 11.11° C | 72% | 1018.5 hPa | 0 mm | - | 0 W/m² | - |
| 1777515078 | 11.67° C | 68% | 1018.2 hPa | 0 mm | - | 0 W/m² | - |
| 1777514775 | 11.67° C | 67% | 1018.3 hPa | 0 mm | - | 0 W/m² | - |
| 1777514472 | 11.67° C | 65% | 1018.2 hPa | 0 mm | - | 0 W/m² | - |
| 1777514169 | 11.67° C | 68% | 1018.3 hPa | 0 mm | - | 0 W/m² | - |
| 1777513865 | 11.11° C | 71% | 1017.9 hPa | 0 mm | - | 0 W/m² | - |
| 1777513562 | 11.11° C | 72% | 1017.9 hPa | 0 mm | - | 0 W/m² | - |
| 1777513259 | 11.67° C | 71% | 1018.1 hPa | 0 mm | - | 0 W/m² | - |
* Rain latest hour (hover to see other rain measurements)
** Current wind speed in m/s (hover to see current wind gust speed)